Time;durP1;ratioP1;P1;durP2;ratioP2;P2;SDS_P1;SDS_P2;PMS_P1;PMS_P2;Temp;Humidity;BMP_temperature;BMP_pressure;BME280_temperature;BME280_humidity;BME280_pressure;Samples;Min_cycle;Max_cycle;Signal;HPM_P1;HPM_P2
2022/04/23 00:00:30;;;;;;;39.90;18.37;;;4.40;99.90;;;;;;4434012;28;658280;-68
2022/04/23 00:03:17;;;;;;;34.37;18.87;;;4.50;99.90;;;;;;4410747;28;659584;-67
2022/04/23 00:06:04;;;;;;;31.70;18.73;;;4.40;99.90;;;;;;4433711;28;658412;-67
2022/04/23 00:08:52;;;;;;;34.43;19.00;;;4.40;99.90;;;;;;4420152;28;657808;-67
2022/04/23 00:11:39;;;;;;;33.73;18.43;;;4.40;99.90;;;;;;4440485;28;657736;-67
2022/04/23 00:14:26;;;;;;;28.47;17.07;;;4.30;99.90;;;;;;4426677;28;657922;-68
2022/04/23 00:17:14;;;;;;;27.77;15.93;;;4.40;99.90;;;;;;4443706;28;658320;-68
2022/04/23 00:20:02;;;;;;;28.70;16.30;;;4.30;99.90;;;;;;4423320;28;657475;-67
2022/04/23 00:22:49;;;;;;;30.03;16.27;;;4.40;99.90;;;;;;4451366;28;657221;-68
2022/04/23 00:25:36;;;;;;;29.37;16.10;;;4.30;99.90;;;;;;4427882;28;657263;-67
2022/04/23 00:28:23;;;;;;;31.93;17.03;;;4.30;99.90;;;;;;4446092;28;659069;-67
2022/04/23 00:31:11;;;;;;;30.37;16.90;;;4.30;99.90;;;;;;4424863;28;657802;-67
2022/04/23 00:33:59;;;;;;;27.97;15.93;;;4.20;99.90;;;;;;4445699;28;658817;-68
2022/04/23 00:36:46;;;;;;;31.60;17.37;;;4.30;99.90;;;;;;4423411;28;658122;-67
2022/04/23 00:39:34;;;;;;;29.23;16.30;;;4.20;99.90;;;;;;4447429;28;657555;-67
2022/04/23 00:42:21;;;;;;;31.60;16.63;;;4.20;99.90;;;;;;4422910;28;658169;-67
2022/04/23 00:45:08;;;;;;;25.83;15.07;;;4.20;99.90;;;;;;4441064;28;658245;-67
2022/04/23 00:47:56;;;;;;;25.70;15.23;;;4.20;99.90;;;;;;4428268;28;657559;-67
2022/04/23 00:50:44;;;;;;;27.07;15.30;;;4.20;99.90;;;;;;4450499;28;657963;-67
2022/04/23 00:53:31;;;;;;;27.87;15.80;;;4.20;99.90;;;;;;4423451;28;657792;-68
2022/04/23 00:56:19;;;;;;;30.50;16.60;;;4.20;99.90;;;;;;4447211;28;657746;-67
2022/04/23 00:59:06;;;;;;;27.33;15.50;;;4.10;99.90;;;;;;4424262;28;657556;-67
2022/04/23 01:01:53;;;;;;;26.47;15.47;;;4.10;99.90;;;;;;4447684;28;657829;-67
2022/04/23 01:04:40;;;;;;;27.67;15.50;;;4.10;99.90;;;;;;4427825;28;657788;-67
2022/04/23 01:07:29;;;;;;;27.70;16.13;;;4.10;99.90;;;;;;4446075;28;658609;-68
2022/04/23 01:10:16;;;;;;;28.90;15.57;;;4.00;99.90;;;;;;4425047;28;657308;-67
2022/04/23 01:13:03;;;;;;;28.67;15.73;;;4.00;99.90;;;;;;4441932;28;658183;-68
2022/04/23 01:16:00;;;;;;;30.63;16.63;;;3.90;99.90;;;;;;4428094;28;657375;-67
2022/04/23 01:18:47;;;;;;;27.20;16.03;;;3.80;99.90;;;;;;4400639;28;658057;-68
2022/04/23 01:21:35;;;;;;;31.20;16.43;;;3.80;99.90;;;;;;4445131;28;657258;-67
2022/04/23 01:24:23;;;;;;;31.87;16.97;;;3.80;99.90;;;;;;4420987;28;659815;-67
2022/04/23 01:27:11;;;;;;;27.33;15.50;;;3.70;99.90;;;;;;4431990;28;657501;-67
2022/04/23 01:29:58;;;;;;;24.80;13.17;;;3.70;99.90;;;;;;4451186;28;658537;-67
2022/04/23 01:32:45;;;;;;;23.90;13.67;;;3.70;99.90;;;;;;4428327;28;659150;-67
2022/04/23 01:35:32;;;;;;;22.50;13.63;;;3.70;99.90;;;;;;4450803;28;657595;-67
2022/04/23 01:38:21;;;;;;;26.13;14.17;;;3.80;99.90;;;;;;4446885;28;657375;-67
2022/04/23 01:41:08;;;;;;;24.00;13.47;;;3.80;99.90;;;;;;4419451;28;657932;-68
2022/04/23 01:43:57;;;;;;;24.30;13.47;;;3.80;99.90;;;;;;4427501;28;657266;-67
2022/04/23 01:46:44;;;;;;;23.47;13.70;;;3.80;99.90;;;;;;4445596;28;657355;-67
2022/04/23 01:49:31;;;;;;;20.63;12.03;;;3.80;99.90;;;;;;4427677;28;657483;-67
2022/04/23 01:52:18;;;;;;;20.50;12.90;;;3.80;99.90;;;;;;4443415;28;658434;-67
2022/04/23 01:55:08;;;;;;;23.10;13.20;;;3.80;99.90;;;;;;4421462;28;658296;-67
2022/04/23 01:57:55;;;;;;;19.00;11.53;;;3.80;94.30;;;;;;4429667;28;657661;-67
2022/04/23 02:00:44;;;;;;;21.70;12.60;;;3.80;90.10;;;;;;4450356;28;657976;-67
2022/04/23 02:03:32;;;;;;;22.23;13.03;;;3.70;63.70;;;;;;4427126;28;657592;-67
2022/04/23 02:06:19;;;;;;;23.77;13.37;;;3.80;19.00;;;;;;4449634;28;657665;-67
2022/04/23 02:09:07;;;;;;;22.77;13.30;;;3.70;1.00;;;;;;4427455;28;657477;-67
2022/04/23 02:11:56;;;;;;;20.37;12.43;;;3.70;1.00;;;;;;4440452;28;657100;-67
2022/04/23 02:14:44;;;;;;;22.30;12.43;;;3.70;1.00;;;;;;4427822;28;657223;-68
2022/04/23 02:17:35;;;;;;;19.47;11.83;;;3.80;1.00;;;;;;4426380;28;657227;-67
2022/04/23 02:20:23;;;;;;;18.33;11.67;;;3.70;1.00;;;;;;4425724;28;657121;-68
2022/04/23 02:23:10;;;;;;;19.67;11.83;;;3.70;1.00;;;;;;4434536;28;656334;-67
2022/04/23 02:25:58;;;;;;;22.57;12.53;;;3.70;1.00;;;;;;4450849;28;657187;-68
2022/04/23 02:28:48;;;;;;;20.87;12.20;;;3.70;1.00;;;;;;4421306;28;657995;-68
2022/04/23 02:31:35;;;;;;;20.73;12.03;;;3.70;1.00;;;;;;4436542;28;656478;-67
2022/04/23 02:34:22;;;;;;;24.07;12.57;;;3.70;1.00;;;;;;4449003;28;656812;-68
2022/04/23 02:37:10;;;;;;;22.03;12.33;;;3.60;1.00;;;;;;4442408;28;657152;-67
2022/04/23 02:39:57;;;;;;;22.77;13.13;;;3.60;1.00;;;;;;4427775;28;657428;-68
2022/04/23 02:42:44;;;;;;;25.73;13.87;;;3.50;99.90;;;;;;4423438;28;656573;-68
2022/04/23 02:45:37;;;;;;;26.23;13.97;;;3.40;99.90;;;;;;4400701;28;658646;-68
2022/04/23 02:48:24;;;;;;;24.00;13.83;;;3.30;1.00;;;;;;4395649;28;658281;-67
2022/04/23 02:51:15;;;;;;;23.23;14.90;;;3.20;1.00;;;;;;4396143;28;656681;-67
2022/04/23 02:54:02;;;;;;;23.63;14.40;;;3.10;42.10;;;;;;4400849;28;657533;-67
2022/04/23 02:56:50;;;;;;;23.77;13.83;;;3.00;99.90;;;;;;4424670;28;658079;-67
2022/04/23 02:59:37;;;;;;;21.50;12.37;;;2.90;99.90;;;;;;4404716;28;657554;-67
2022/04/23 03:02:26;;;;;;;21.17;11.80;;;3.00;99.90;;;;;;4423055;28;657769;-67
2022/04/23 03:05:14;;;;;;;24.70;13.03;;;3.10;99.90;;;;;;4395557;28;658929;-68
2022/04/23 03:08:02;;;;;;;23.33;13.50;;;3.10;99.90;;;;;;4398729;28;657491;-67
2022/04/23 03:10:49;;;;;;;25.87;13.47;;;3.10;99.90;;;;;;4418634;28;658094;-67
2022/04/23 03:13:36;;;;;;;22.67;13.10;;;2.90;99.90;;;;;;4399749;28;657737;-67
2022/04/23 03:16:23;;;;;;;22.90;13.73;;;2.80;99.90;;;;;;4417572;28;657881;-67
2022/04/23 03:19:12;;;;;;;27.00;14.30;;;2.70;99.90;;;;;;4399306;28;657695;-67
2022/04/23 03:22:00;;;;;;;24.50;14.20;;;2.60;99.90;;;;;;4418795;28;657840;-67
2022/04/23 03:24:47;;;;;;;27.00;15.13;;;2.50;99.90;;;;;;4398546;28;659186;-68
2022/04/23 03:27:34;;;;;;;30.33;16.13;;;2.40;99.90;;;;;;4421074;28;658200;-67
2022/04/23 03:30:21;;;;;;;25.40;14.57;;;2.40;99.90;;;;;;4398413;28;657811;-67
2022/04/23 03:33:09;;;;;;;27.73;15.00;;;2.30;99.90;;;;;;4412989;28;657913;-67
2022/04/23 03:35:58;;;;;;;28.10;14.30;;;2.20;99.90;;;;;;4406361;28;657482;-67
2022/04/23 03:38:46;;;;;;;23.03;13.07;;;2.20;99.90;;;;;;4408265;28;657719;-67
2022/04/23 03:41:34;;;;;;;23.83;13.07;;;2.10;99.90;;;;;;4435803;28;657979;-67
2022/04/23 03:44:22;;;;;;;23.40;13.27;;;1.90;99.90;;;;;;4422881;28;657442;-67
2022/04/23 03:47:09;;;;;;;27.50;12.40;;;1.80;99.90;;;;;;4443737;28;657454;-67
2022/04/23 03:49:56;;;;;;;21.27;12.37;;;1.80;99.90;;;;;;4422961;28;658058;-67
2022/04/23 03:52:45;;;;;;;22.07;11.90;;;1.80;99.90;;;;;;4441780;28;657706;-67
2022/04/23 03:55:32;;;;;;;21.70;11.97;;;1.80;99.90;;;;;;4418096;28;658249;-67
2022/04/23 03:58:19;;;;;;;24.43;12.77;;;1.70;99.90;;;;;;4439813;28;658016;-67
2022/04/23 04:01:06;;;;;;;18.23;10.97;;;1.70;99.90;;;;;;4419554;28;657457;-67
2022/04/23 04:03:53;;;;;;;20.70;11.00;;;1.70;99.90;;;;;;4443657;28;657703;-67
2022/04/23 04:06:41;;;;;;;20.10;10.87;;;1.80;99.90;;;;;;4426178;28;657543;-67
2022/04/23 04:09:29;;;;;;;17.87;10.43;;;1.70;99.90;;;;;;4449667;28;658210;-67
2022/04/23 04:12:17;;;;;;;19.40;12.47;;;1.60;99.90;;;;;;4422417;28;657525;-67
2022/04/23 04:15:05;;;;;;;21.60;12.27;;;1.60;99.90;;;;;;4442925;28;657601;-67
2022/04/23 04:17:52;;;;;;;20.97;12.07;;;1.60;99.90;;;;;;4421624;28;657913;-67
2022/04/23 04:20:39;;;;;;;21.93;12.27;;;1.80;99.90;;;;;;4448473;28;658045;-67
2022/04/23 04:23:27;;;;;;;19.43;10.60;;;1.70;99.90;;;;;;4428714;28;657758;-67
2022/04/23 04:26:16;;;;;;;18.87;11.10;;;1.70;99.90;;;;;;4444229;28;657269;-67
2022/04/23 04:29:03;;;;;;;19.83;11.50;;;1.70;99.90;;;;;;4421614;28;658347;-67
2022/04/23 04:31:51;;;;;;;20.63;12.13;;;1.80;99.90;;;;;;4429602;28;657563;-67
2022/04/23 04:34:38;;;;;;;18.20;10.30;;;1.80;99.90;;;;;;4448195;28;659104;-67
2022/04/23 04:37:27;;;;;;;18.40;10.23;;;1.90;99.90;;;;;;4429942;28;657250;-67
2022/04/23 04:40:14;;;;;;;18.00;10.32;;;1.80;99.90;;;;;;4444234;28;658103;-67
2022/04/23 04:43:03;;;;;;;16.30;9.57;;;1.90;99.90;;;;;;4425668;28;658366;-68
2022/04/23 04:45:51;;;;;;;15.82;9.68;;;2.00;99.90;;;;;;4429508;28;657471;-67
2022/04/23 04:48:38;;;;;;;19.50;8.90;;;2.20;99.90;;;;;;4451934;28;657579;-68
2022/04/23 04:51:25;;;;;;;19.33;10.40;;;2.30;99.90;;;;;;4435027;28;656705;-68
2022/04/23 04:54:12;;;;;;;18.97;11.10;;;2.50;99.90;;;;;;4447774;28;658348;-68
2022/04/23 04:57:02;;;;;;;23.70;11.17;;;2.80;99.90;;;;;;4447627;28;657346;-67
2022/04/23 04:59:51;;;;;;;28.10;12.35;;;2.90;99.90;;;;;;4423211;28;658156;-67
2022/04/23 05:02:39;;;;;;;19.70;11.07;;;3.20;99.90;;;;;;4421681;28;658626;-67
2022/04/23 05:05:26;;;;;;;21.13;11.93;;;3.40;99.90;;;;;;4426997;28;657302;-67
2022/04/23 05:08:13;;;;;;;17.33;10.30;;;3.60;99.90;;;;;;4443619;28;657779;-67
2022/04/23 05:11:00;;;;;;;17.33;10.10;;;3.80;99.90;;;;;;4422728;28;657843;-67
2022/04/23 05:13:47;;;;;;;16.53;8.67;;;4.10;99.90;;;;;;4445975;28;658489;-67
2022/04/23 05:16:36;;;;;;;15.03;8.97;;;4.50;99.90;;;;;;4447613;28;656820;-67
2022/04/23 05:19:23;;;;;;;18.20;9.00;;;4.70;99.90;;;;;;4425423;28;657088;-67
2022/04/23 05:22:10;;;;;;;13.30;8.43;;;4.70;99.90;;;;;;4422682;28;656657;-67
2022/04/23 05:24:57;;;;;;;11.23;6.67;;;5.00;99.90;;;;;;4448077;28;657683;-67
2022/04/23 05:27:45;;;;;;;13.57;7.50;;;5.20;99.90;;;;;;4445392;28;656700;-67
2022/04/23 05:30:32;;;;;;;12.50;7.40;;;5.40;99.90;;;;;;4450573;28;656898;-68
2022/04/23 05:33:21;;;;;;;11.60;7.40;;;5.40;99.90;;;;;;4449854;28;656545;-67
2022/04/23 05:36:08;;;;;;;12.63;8.10;;;5.50;99.90;;;;;;4425238;28;656995;-67
2022/04/23 05:38:55;;;;;;;11.50;6.90;;;5.70;99.90;;;;;;4429456;28;656992;-67
2022/04/23 05:41:42;;;;;;;10.73;6.27;;;5.80;99.90;;;;;;4448351;28;656585;-67
2022/04/23 05:44:30;;;;;;;8.90;5.97;;;6.10;99.90;;;;;;4443288;28;656640;-67
2022/04/23 05:47:18;;;;;;;8.90;5.03;;;6.30;99.90;;;;;;4449704;28;655846;-67
2022/04/23 05:50:08;;;;;;;9.13;5.90;;;6.50;99.90;;;;;;4435125;28;656389;-67
2022/04/23 05:52:56;;;;;;;9.77;5.70;;;6.60;99.90;;;;;;4430513;28;655985;-67
2022/04/23 05:55:43;;;;;;;7.27;4.97;;;6.70;99.90;;;;;;4453692;28;656802;-67
2022/04/23 05:58:30;;;;;;;6.93;4.30;;;6.90;99.90;;;;;;4430377;28;656208;-67
2022/04/23 06:01:17;;;;;;;7.57;4.53;;;7.10;99.90;;;;;;4448875;28;655361;-67
2022/04/23 06:04:05;;;;;;;8.20;4.33;;;7.20;99.90;;;;;;4448158;28;655331;-67
2022/04/23 06:06:54;;;;;;;5.63;4.00;;;7.50;99.90;;;;;;4429197;28;655849;-67
2022/04/23 06:09:41;;;;;;;7.10;4.27;;;7.50;99.90;;;;;;4426293;28;655412;-67
2022/04/23 06:12:28;;;;;;;5.57;3.77;;;7.50;99.90;;;;;;4447687;28;655701;-67
2022/04/23 06:15:15;;;;;;;5.55;3.97;;;7.70;99.90;;;;;;4425859;28;656013;-67
2022/04/23 06:18:02;;;;;;;5.93;3.70;;;7.90;99.90;;;;;;4440021;28;656136;-67
2022/04/23 06:20:50;;;;;;;5.80;3.77;;;8.00;99.90;;;;;;4436890;28;657146;-67
2022/04/23 06:23:39;;;;;;;6.73;3.70;;;8.00;99.90;;;;;;4445514;28;656498;-67
2022/04/23 06:26:26;;;;;;;4.87;3.43;;;8.20;99.90;;;;;;4423201;28;655768;-67
2022/04/23 06:29:13;;;;;;;4.17;3.27;;;8.30;99.90;;;;;;4442983;28;656605;-68
2022/04/23 06:32:01;;;;;;;5.50;3.50;;;8.40;99.90;;;;;;4423725;28;655556;-67
2022/04/23 06:34:48;;;;;;;4.83;3.33;;;8.40;99.90;;;;;;4450502;28;656577;-67
2022/04/23 06:37:40;;;;;;;4.40;3.40;;;8.50;99.90;;;;;;4433709;28;655767;-67
2022/04/23 06:40:29;;;;;;;5.23;3.40;;;8.70;99.90;;;;;;4421911;28;656211;-67
2022/04/23 06:43:16;;;;;;;6.17;3.93;;;8.70;99.90;;;;;;4428413;28;656001;-68
2022/04/23 06:46:03;;;;;;;4.90;3.63;;;8.80;99.90;;;;;;4437769;28;656340;-67
2022/04/23 06:48:50;;;;;;;6.37;4.33;;;8.90;99.90;;;;;;4429255;28;655097;-67
2022/04/23 06:51:37;;;;;;;5.67;4.00;;;9.10;99.90;;;;;;4447687;28;656158;-67
2022/04/23 06:54:25;;;;;;;6.70;4.63;;;9.20;99.90;;;;;;4443641;28;656009;-67
2022/04/23 06:57:14;;;;;;;7.87;4.67;;;9.40;99.90;;;;;;4446635;28;655847;-67
2022/04/23 07:00:01;;;;;;;7.03;4.70;;;9.50;99.90;;;;;;4429244;28;655613;-67
2022/04/23 07:02:48;;;;;;;5.20;4.37;;;9.30;99.90;;;;;;4444722;28;655300;-67
2022/04/23 07:05:36;;;;;;;7.60;4.40;;;9.70;99.90;;;;;;4428858;28;655386;-67
2022/04/23 07:08:23;;;;;;;6.67;4.20;;;9.80;99.90;;;;;;4451739;28;657013;-67
2022/04/23 07:11:10;;;;;;;6.63;4.63;;;9.90;99.90;;;;;;4428262;28;655284;-68
2022/04/23 07:13:59;;;;;;;8.03;5.40;;;10.00;99.90;;;;;;4446323;28;655655;-67
2022/04/23 07:16:48;;;;;;;9.67;5.90;;;10.40;99.90;;;;;;4431446;28;657551;-67
2022/04/23 07:19:39;;;;;;;12.50;5.03;;;10.50;99.90;;;;;;4438255;28;656434;-68
2022/04/23 07:22:26;;;;;;;9.90;6.30;;;10.70;99.30;;;;;;4424780;28;657690;-68
2022/04/23 07:25:14;;;;;;;7.97;5.90;;;10.00;97.00;;;;;;4441907;28;656731;-67
2022/04/23 07:28:01;;;;;;;7.73;5.40;;;9.80;99.90;;;;;;4426096;28;656896;-67
2022/04/23 07:30:50;;;;;;;8.47;5.63;;;10.20;97.90;;;;;;4447653;28;656790;-68
2022/04/23 07:39:46;;;;;;;7.47;5.97;;;10.60;95.80;;;;;;4399664;28;657215;-68
2022/04/23 07:42:34;;;;;;;7.97;5.67;;;10.00;99.90;;;;;;4446911;28;656756;-68
2022/04/23 07:45:21;;;;;;;8.27;5.50;;;9.70;99.20;;;;;;4418127;28;656686;-67
2022/04/23 07:48:11;;;;;;;8.40;5.70;;;9.80;99.90;;;;;;4448629;28;655719;-68
2022/04/23 07:50:58;;;;;;;7.53;5.17;;;9.60;98.50;;;;;;4425912;28;656026;-68
2022/04/23 07:53:45;;;;;;;8.80;5.10;;;9.40;99.50;;;;;;4432557;28;655911;-68
2022/04/23 07:56:33;;;;;;;7.37;5.33;;;10.10;99.90;;;;;;4450911;28;655891;-68
2022/04/23 07:59:22;;;;;;;6.23;4.57;;;10.50;99.90;;;;;;4427791;28;656363;-68
2022/04/23 08:02:09;;;;;;;8.43;4.67;;;11.30;95.80;;;;;;4449270;28;656504;-68
2022/04/23 08:04:58;;;;;;;8.40;5.20;;;11.80;92.30;;;;;;4430294;28;656874;-68
2022/04/23 08:07:45;;;;;;;8.17;5.37;;;11.70;90.90;;;;;;4434165;28;657150;-68
2022/04/23 08:10:32;;;;;;;7.77;5.33;;;12.00;91.80;;;;;;4433878;28;657633;-68
2022/04/23 08:13:20;;;;;;;8.87;5.70;;;12.10;90.90;;;;;;4443603;28;656330;-68
2022/04/23 08:16:08;;;;;;;7.33;5.17;;;11.60;90.30;;;;;;4447477;28;657381;-68
2022/04/23 08:18:56;;;;;;;6.27;4.70;;;11.10;91.40;;;;;;4444389;28;657007;-67
2022/04/23 08:21:44;;;;;;;6.87;4.63;;;11.20;92.10;;;;;;4452752;28;656873;-67
2022/04/23 08:24:31;;;;;;;8.27;4.70;;;11.30;91.90;;;;;;4429655;28;657535;-67
2022/04/23 08:27:19;;;;;;;7.03;4.90;;;11.90;92.80;;;;;;4445829;28;657060;-68
2022/04/23 08:33:12;;;;;;;6.90;4.43;;;13.70;87.90;;;;;;4425865;28;656763;-68
2022/04/23 08:35:59;;;;;;;5.53;3.80;;;14.00;81.90;;;;;;4442558;28;656960;-67
2022/04/23 08:38:48;;;;;;;4.73;3.97;;;14.10;78.80;;;;;;4427709;28;656654;-68
2022/04/23 08:41:35;;;;;;;5.83;3.90;;;12.40;77.50;;;;;;4439162;28;657072;-68
2022/04/23 08:44:23;;;;;;;4.50;3.73;;;12.80;80.30;;;;;;4448599;28;657741;-68
2022/04/23 08:47:11;;;;;;;4.73;3.97;;;12.60;83.20;;;;;;4428789;28;656994;-68
2022/04/23 08:49:58;;;;;;;8.63;4.30;;;12.90;77.60;;;;;;4447072;28;657503;-68
2022/04/23 08:52:49;;;;;;;5.90;3.40;;;12.20;81.20;;;;;;4434763;28;656572;-67
2022/04/23 08:55:40;;;;;;;5.03;3.90;;;12.80;85.30;;;;;;4426454;28;656736;-67
2022/04/23 08:58:27;;;;;;;5.30;3.47;;;13.20;77.90;;;;;;4424139;28;657970;-68
2022/04/23 09:01:14;;;;;;;4.70;3.60;;;13.00;77.10;;;;;;4452118;28;656996;-68
2022/04/23 09:04:02;;;;;;;4.87;3.90;;;12.90;76.30;;;;;;4428858;28;657107;-69
2022/04/23 09:06:49;;;;;;;4.27;3.00;;;13.90;76.60;;;;;;4442336;28;656326;-68
2022/04/23 09:09:36;;;;;;;3.63;3.05;;;14.00;73.30;;;;;;4429163;28;657558;-68
2022/04/23 09:12:26;;;;;;;3.07;2.80;;;14.00;76.30;;;;;;4441298;28;657581;-68
2022/04/23 09:24:24;;;;;;;4.10;3.10;;;15.30;67.70;;;;;;4424283;28;656091;-68
2022/04/23 09:27:11;;;;;;;3.53;3.03;;;15.00;68.70;;;;;;4427760;28;656677;-68
2022/04/23 09:30:00;;;;;;;3.53;3.08;;;14.40;64.70;;;;;;4447550;28;657654;-69
2022/04/23 09:32:57;;;;;;;4.43;3.13;;;13.10;66.50;;;;;;4418223;28;656951;-68
2022/04/23 09:35:55;;;;;;;3.33;2.80;;;14.20;69.60;;;;;;4444901;28;656397;-68
2022/04/23 09:38:42;;;;;;;4.37;3.40;;;14.80;69.80;;;;;;4422096;28;656584;-67
2022/04/23 09:41:33;;;;;;;7.33;4.07;;;15.00;67.20;;;;;;4445952;28;656914;-68
2022/04/23 09:44:20;;;;;;;7.43;4.00;;;15.20;67.60;;;;;;4412171;28;656820;-68
2022/04/23 09:47:09;;;;;;;6.40;3.67;;;14.90;68.60;;;;;;4451528;28;657062;-68
2022/04/23 09:49:56;;;;;;;4.77;3.87;;;15.40;67.10;;;;;;4427048;28;656324;-67
2022/04/23 09:52:43;;;;;;;4.20;3.60;;;16.10;68.00;;;;;;4447714;28;657040;-68
2022/04/23 09:55:31;;;;;;;4.60;3.60;;;16.10;68.60;;;;;;4423904;28;656519;-68
2022/04/23 09:58:18;;;;;;;4.83;3.80;;;16.30;65.00;;;;;;4448068;28;656967;-68
2022/04/23 10:01:07;;;;;;;6.93;4.28;;;17.20;67.00;;;;;;4431120;28;656250;-68
2022/04/23 10:03:55;;;;;;;5.70;4.07;;;16.10;61.70;;;;;;4447734;28;656338;-68
2022/04/23 10:06:43;;;;;;;7.70;4.00;;;16.90;61.90;;;;;;4427594;28;657400;-67
2022/04/23 10:09:33;;;;;;;5.20;4.10;;;15.70;60.30;;;;;;4425663;28;656581;-68
2022/04/23 10:12:20;;;;;;;8.00;4.10;;;14.70;62.80;;;;;;4429108;28;656599;-68
2022/04/23 10:15:08;;;;;;;5.23;3.90;;;14.70;64.90;;;;;;4446183;28;657388;-67
2022/04/23 10:17:56;;;;;;;7.93;4.30;;;13.60;67.40;;;;;;4425155;28;656417;-68
2022/04/23 10:20:54;;;;;;;6.57;3.90;;;13.30;67.50;;;;;;4445048;28;656720;-68
2022/04/23 10:23:46;;;;;;;6.20;4.57;;;13.90;67.70;;;;;;4424773;28;656445;-68
2022/04/23 10:26:38;;;;;;;5.50;3.90;;;14.60;67.00;;;;;;4420482;28;656534;-67
2022/04/23 10:29:25;;;;;;;9.37;4.53;;;15.40;64.90;;;;;;4410865;28;656509;-68
2022/04/23 10:32:19;;;;;;;7.10;4.60;;;14.70;64.70;;;;;;4436505;28;657288;-68
2022/04/23 10:35:34;;;;;;;6.73;4.53;;;14.10;63.70;;;;;;4396627;28;657234;-68
2022/04/23 10:38:23;;;;;;;6.77;4.57;;;13.90;66.40;;;;;;4416882;28;657226;-68
2022/04/23 10:41:11;;;;;;;6.77;4.80;;;15.40;68.80;;;;;;4431332;28;656459;-68
2022/04/23 10:44:00;;;;;;;6.37;4.83;;;16.40;59.80;;;;;;4434572;28;658009;-68
2022/04/23 10:46:48;;;;;;;6.03;4.77;;;17.40;64.80;;;;;;4419890;28;657572;-68
2022/04/23 10:49:35;;;;;;;7.10;5.07;;;16.00;60.60;;;;;;4427201;28;656669;-68
2022/04/23 10:52:34;;;;;;;7.30;5.07;;;15.00;61.40;;;;;;4445972;28;657055;-68
2022/04/23 10:55:23;;;;;;;8.53;5.07;;;14.90;63.30;;;;;;4400909;28;656489;-68
2022/04/23 10:58:22;;;;;;;7.43;5.00;;;15.20;66.40;;;;;;4415795;28;656758;-69
2022/04/23 11:01:23;;;;;;;7.83;5.20;;;15.50;64.20;;;;;;4433401;28;657298;-68
2022/04/23 11:04:13;;;;;;;5.40;4.23;;;15.80;62.00;;;;;;4397237;28;657101;-69
2022/04/23 11:13:28;;;;;;;7.97;5.07;;;16.00;61.90;;;;;;4414544;28;656730;-68
2022/04/23 11:16:16;;;;;;;8.93;5.10;;;15.60;60.10;;;;;;4430930;28;657020;-68
2022/04/23 11:19:03;;;;;;;9.27;5.77;;;15.40;64.60;;;;;;4445137;28;656745;-68
2022/04/23 11:21:50;;;;;;;6.60;4.83;;;15.40;62.50;;;;;;4426125;28;657052;-68
2022/04/23 11:24:37;;;;;;;6.67;4.80;;;15.80;61.60;;;;;;4449904;28;656563;-68
2022/04/23 11:27:25;;;;;;;8.07;5.43;;;16.60;64.50;;;;;;4444125;28;656732;-69
2022/04/23 11:30:14;;;;;;;7.33;5.57;;;15.50;58.70;;;;;;4445070;28;656716;-68
2022/04/23 11:33:11;;;;;;;7.87;5.50;;;15.30;60.10;;;;;;4429299;28;656730;-69
2022/04/23 11:36:00;;;;;;;7.22;5.53;;;15.80;60.30;;;;;;4426812;28;656768;-68
2022/04/23 11:38:47;;;;;;;8.93;5.10;;;15.10;60.90;;;;;;4414802;28;658263;-69
2022/04/23 11:41:35;;;;;;;8.10;5.10;;;15.60;60.40;;;;;;4444985;28;657288;-69
2022/04/23 11:44:45;;;;;;;9.87;5.00;;;16.20;58.90;;;;;;4426178;28;657106;-68
2022/04/23 11:47:33;;;;;;;8.33;5.67;;;16.20;59.50;;;;;;4428356;28;656452;-68
2022/04/23 11:50:21;;;;;;;7.97;5.23;;;15.90;59.90;;;;;;4422839;28;656370;-68
2022/04/23 11:53:10;;;;;;;6.37;4.90;;;15.80;61.80;;;;;;4448294;28;657346;-69
2022/04/23 11:55:57;;;;;;;5.33;4.40;;;15.40;62.40;;;;;;4425336;28;656910;-69
2022/04/23 11:58:44;;;;;;;8.83;5.00;;;14.50;60.50;;;;;;4447881;28;656947;-68
2022/04/23 12:01:32;;;;;;;6.67;4.70;;;15.40;68.30;;;;;;4423738;28;656817;-69
2022/04/23 12:04:20;;;;;;;5.27;4.27;;;16.60;60.00;;;;;;4447370;28;656398;-69
2022/04/23 12:07:08;;;;;;;6.43;4.27;;;16.90;58.50;;;;;;4430330;28;657444;-69
2022/04/23 12:09:56;;;;;;;4.80;4.30;;;16.00;58.30;;;;;;4430024;28;656825;-68
2022/04/23 12:12:48;;;;;;;5.90;4.60;;;15.70;59.50;;;;;;4447026;28;657340;-68
2022/04/23 12:15:36;;;;;;;11.90;5.30;;;15.50;60.20;;;;;;4406839;28;657531;-69
2022/04/23 12:18:23;;;;;;;8.20;4.60;;;15.30;60.60;;;;;;4444593;28;658384;-68
2022/04/23 12:21:12;;;;;;;5.30;4.50;;;15.10;61.40;;;;;;4427328;28;657025;-68
2022/04/23 12:23:59;;;;;;;7.33;4.33;;;15.70;63.70;;;;;;4448266;28;656618;-68
2022/04/23 12:26:47;;;;;;;6.67;4.63;;;16.00;59.70;;;;;;4429069;28;657739;-68
2022/04/23 12:42:22;;;;;;;6.27;4.53;;;15.60;58.40;;;;;;4395295;28;656735;-68
2022/04/23 12:45:19;;;;;;;8.80;4.50;;;15.80;59.30;;;;;;4440852;28;656028;-68
2022/04/23 12:48:06;;;;;;;6.53;4.43;;;16.40;59.00;;;;;;4422914;28;656772;-68
2022/04/23 12:51:04;;;;;;;6.40;4.60;;;17.40;58.70;;;;;;4444868;28;656596;-68
2022/04/23 12:53:51;;;;;;;4.40;3.60;;;17.00;57.30;;;;;;4428039;28;657801;-68
2022/04/23 12:56:40;;;;;;;8.60;4.30;;;16.20;54.90;;;;;;4444846;28;656601;-68
2022/04/23 12:59:27;;;;;;;7.03;4.83;;;16.10;57.10;;;;;;4422165;28;657907;-68
2022/04/23 13:02:14;;;;;;;6.20;4.70;;;15.60;59.80;;;;;;4446757;28;656393;-68
2022/04/23 13:05:01;;;;;;;5.87;4.80;;;15.30;59.40;;;;;;4428530;28;657043;-68
2022/04/23 13:10:53;;;;;;;7.73;5.47;;;15.10;60.80;;;;;;4427143;28;656691;-68
2022/04/23 13:13:42;;;;;;;6.07;4.80;;;15.80;65.40;;;;;;4430267;28;656444;-68
2022/04/23 13:16:30;;;;;;;6.93;4.80;;;16.40;62.10;;;;;;4447475;28;656056;-68
2022/04/23 13:19:17;;;;;;;6.47;4.93;;;15.70;61.00;;;;;;4421261;28;657994;-68
2022/04/23 13:22:04;;;;;;;9.17;5.07;;;15.70;60.10;;;;;;4442591;28;657211;-68
2022/04/23 13:24:52;;;;;;;7.50;5.10;;;15.80;59.50;;;;;;4426233;28;657613;-68
2022/04/23 13:27:40;;;;;;;6.57;4.47;;;15.40;59.40;;;;;;4439730;28;656804;-68
2022/04/23 13:30:29;;;;;;;7.23;5.03;;;15.40;59.90;;;;;;4449555;28;657225;-68
2022/04/23 13:33:16;;;;;;;7.60;4.83;;;15.20;60.50;;;;;;4423223;28;656433;-68
2022/04/23 13:36:04;;;;;;;9.10;4.80;;;15.10;62.00;;;;;;4440928;28;657720;-68
2022/04/23 13:38:51;;;;;;;9.77;4.70;;;15.30;59.00;;;;;;4423946;28;657011;-68
2022/04/23 13:41:38;;;;;;;6.97;4.43;;;15.00;61.40;;;;;;4446681;28;657712;-68
2022/04/23 13:44:26;;;;;;;7.40;5.10;;;16.10;63.40;;;;;;4428989;28;656507;-68
2022/04/23 13:47:14;;;;;;;10.83;7.27;;;15.90;58.60;;;;;;4441334;28;657574;-68
2022/04/23 13:50:02;;;;;;;10.15;5.82;;;16.00;60.10;;;;;;4420769;28;657558;-68
2022/04/23 13:52:49;;;;;;;9.87;7.37;;;15.30;59.00;;;;;;4439517;28;657343;-67
2022/04/23 13:55:36;;;;;;;11.53;7.50;;;15.40;61.10;;;;;;4419491;28;657719;-68
2022/04/23 13:58:23;;;;;;;8.43;6.53;;;15.00;61.30;;;;;;4443310;28;657916;-68
2022/04/23 14:01:10;;;;;;;8.02;6.20;;;15.10;61.10;;;;;;4427967;28;656614;-67
2022/04/23 14:10:08;;;;;;;6.83;5.20;;;16.00;61.70;;;;;;4423469;28;656839;-68
2022/04/23 14:12:55;;;;;;;7.77;5.03;;;15.60;61.30;;;;;;4424089;28;656614;-68
2022/04/23 14:15:42;;;;;;;9.47;5.83;;;15.40;62.80;;;;;;4446713;28;657381;-67
2022/04/23 14:18:30;;;;;;;6.47;4.60;;;15.10;63.90;;;;;;4439092;28;656852;-68
2022/04/23 14:21:19;;;;;;;6.00;4.43;;;15.10;64.90;;;;;;4442759;28;657579;-68
2022/04/23 14:24:07;;;;;;;7.43;4.60;;;15.00;65.90;;;;;;4426195;28;656704;-68
2022/04/23 14:26:54;;;;;;;14.43;4.40;;;15.10;65.60;;;;;;4442078;28;656589;-68
2022/04/23 14:29:41;;;;;;;5.97;4.63;;;14.90;66.10;;;;;;4419694;28;657357;-68
2022/04/23 14:32:28;;;;;;;6.10;4.80;;;14.70;65.00;;;;;;4446080;28;657749;-68
2022/04/23 14:35:15;;;;;;;7.43;5.22;;;14.90;63.70;;;;;;4416664;28;656408;-68
2022/04/23 14:38:04;;;;;;;5.63;4.53;;;15.30;63.80;;;;;;4443284;28;658183;-67
2022/04/23 14:40:51;;;;;;;7.33;4.80;;;15.30;62.10;;;;;;4424338;28;656512;-68
2022/04/23 14:43:38;;;;;;;6.00;4.85;;;15.20;61.90;;;;;;4443079;28;657225;-68
2022/04/23 14:46:25;;;;;;;6.40;5.37;;;15.70;62.10;;;;;;4424799;28;656696;-67
2022/04/23 14:49:13;;;;;;;9.57;4.97;;;16.90;61.40;;;;;;4441344;28;657315;-68
2022/04/23 14:55:09;;;;;;;8.57;6.20;;;16.80;58.70;;;;;;4406116;28;656634;-68
2022/04/23 14:57:56;;;;;;;4.90;4.00;;;16.80;59.30;;;;;;4426982;28;656963;-68
2022/04/23 15:00:43;;;;;;;5.53;4.27;;;17.40;58.00;;;;;;4441494;28;656990;-68
2022/04/23 15:03:31;;;;;;;5.90;4.37;;;17.40;58.00;;;;;;4424330;28;657001;-68
2022/04/23 15:06:21;;;;;;;6.87;4.30;;;17.70;58.50;;;;;;4439691;28;657122;-67
2022/04/23 15:09:08;;;;;;;6.57;3.93;;;17.50;58.30;;;;;;4418202;28;657240;-67
2022/04/23 15:11:57;;;;;;;10.20;6.67;;;16.90;58.30;;;;;;4422614;28;656452;-68